Airfield :







YOU CAN JOIN US ON...

 
LOGIN :

Register | Disclaimer

   EN    FR    IT 

 









Legend :    VFR   Marginal VFR   IFR   Intensive IFR   Very Intensive IFR
Visi :
Ceiling :
>= 8 km
>= 3000ft
5 to 8 km
1000 to 3000 ft
1500m to 5 km
500 to 1000 ft
800 to 1500m
200 to 500 ft
< 800m
< 200 ft
Symbols :   Thunderstorms  Fog  Heavy snow  Heavy precipitations  Wind > 20 kt






- Airport Elevation : 100 ft
- IATA code : PSM


KPSM - Portsmouth International at Pease

CURRENT METAR :
  • 241356Z 15016G22KT 7SM FEW010 BKN021 OVC200 23/19 A3005 RMK AO2A SLP178 T02280193

EXPIRED METARs :
  • 241330Z 14017G21KT 7SM SCT010 BKN019 22/19 A3005 RMK AO2A SLP178
  • 241309Z 15014KT 7SM BKN010 22/20 A3004 RMK AO2A SLP175
  • 241256Z 15015G23KT 6SM BR OVC009 21/20 A3004 RMK AO2A SLP175 T02140195
  • 241206Z 13015G22KT 6SM BR OVC008 21/20 A3004 RMK AO2A SLP175
  • 241156Z 13017G23KT 6SM BR OVC007 21/20 A3004 RMK AO2A SLP175 T02090197 10209 20200 58007
  • 241134Z 13012KT 4SM BR OVC006 21/20 A3005 RMK AO2A SLP178

TAF KPSM
Valid from the 24 at 12:00 until the 25 at 12:00 UTC


241120Z 2412/2512 15010KT 3SM BR OVC004
FM241400 13010KT P6SM VCSH OVC015
FM241800 13010KT 3SM SHRA OVC010
FM250000 32004KT P6SM BKN015 OVC060
KZBW FIR / North America



MET'MAP, your aeronautical weather chart ! - Copyright ORBIFLY December 2007 - Disclaimer

ORBIFLY MET'MAP TEAM :

Programming & Development : Alexandra Zaïnal
Concept & original design : Baudouin d'Aumeries
Assistance for programming : Marc-Olivier Méhu
Technical & hardware support : Manuel Goepfert

Contact : metmap@orbifly.com




SOURCES & CREDITS :

   NOAA